createdAt,value
2022-10-17T00:02:14.384Z,14.50
2022-10-17T00:04:42.453Z,14.51
2022-10-17T00:07:10.479Z,14.53
2022-10-17T00:09:38.507Z,14.55
2022-10-17T00:12:06.350Z,14.55
2022-10-17T00:14:34.624Z,14.56
2022-10-17T00:17:02.663Z,14.54
2022-10-17T00:19:30.457Z,14.51
2022-10-17T00:21:58.212Z,14.49
2022-10-17T00:24:26.189Z,14.49
2022-10-17T00:26:53.996Z,14.49
2022-10-17T00:29:25.945Z,14.49
2022-10-17T00:31:57.056Z,14.50
2022-10-17T00:34:25.853Z,14.50
2022-10-17T00:36:55.682Z,14.45
2022-10-17T00:39:24.147Z,14.44
2022-10-17T00:41:53.202Z,14.42
2022-10-17T00:44:30.528Z,14.41
2022-10-17T00:47:05.592Z,14.38
2022-10-17T00:49:39.473Z,14.35
2022-10-17T00:52:19.598Z,14.32
2022-10-17T00:54:59.562Z,14.31
2022-10-17T00:57:28.673Z,14.27
2022-10-17T00:59:58.778Z,14.23
2022-10-17T01:02:26.979Z,14.21
2022-10-17T01:04:56.813Z,14.19
2022-10-17T01:07:26.607Z,14.15
2022-10-17T01:09:54.841Z,14.12
2022-10-17T01:12:39.213Z,14.11
2022-10-17T01:15:17.423Z,14.09
2022-10-17T01:18:11.078Z,14.07
2022-10-17T01:20:42.420Z,14.02
2022-10-17T01:23:29.169Z,14.02
2022-10-17T01:26:16.452Z,14.02
2022-10-17T01:28:44.546Z,14.04
2022-10-17T01:31:15.266Z,14.06
2022-10-17T01:34:06.146Z,14.07
2022-10-17T01:36:56.997Z,14.08
2022-10-17T01:39:59.664Z,14.07
2022-10-17T01:42:35.517Z,14.08
2022-10-17T01:45:07.968Z,14.08
2022-10-17T01:47:35.903Z,14.09
2022-10-17T01:50:14.659Z,14.09
2022-10-17T01:52:52.059Z,14.07
2022-10-17T01:55:27.394Z,14.05
2022-10-17T01:57:59.163Z,14.06
2022-10-17T02:00:28.308Z,14.08
2022-10-17T02:03:07.945Z,14.12
2022-10-17T02:05:39.014Z,14.17
2022-10-17T02:08:07.269Z,14.19
2022-10-17T02:11:04.565Z,14.22
2022-10-17T02:13:40.430Z,14.21
2022-10-17T02:16:16.467Z,14.19
2022-10-17T02:18:52.064Z,14.19
2022-10-17T02:21:38.831Z,14.15
2022-10-17T02:24:13.346Z,14.12
2022-10-17T02:26:56.587Z,14.09
2022-10-17T02:29:31.609Z,14.08
2022-10-17T02:32:04.121Z,14.07
2022-10-17T02:34:36.977Z,14.06
2022-10-17T02:37:07.700Z,14.05
2022-10-17T02:39:36.509Z,14.06
2022-10-17T02:42:06.706Z,14.04
2022-10-17T02:44:35.442Z,14.02
2022-10-17T02:47:29.638Z,14.00
2022-10-17T02:50:00.848Z,13.99
2022-10-17T02:52:32.815Z,13.96
2022-10-17T02:55:16.229Z,13.95
2022-10-17T02:57:50.369Z,13.93
2022-10-17T03:00:19.253Z,13.90
2022-10-17T03:02:51.199Z,13.89
2022-10-17T03:05:28.431Z,13.88
2022-10-17T03:07:56.976Z,13.88
2022-10-17T03:10:26.028Z,13.87
2022-10-17T03:12:54.366Z,13.87
2022-10-17T03:15:22.157Z,13.86
2022-10-17T03:17:50.927Z,13.85
2022-10-17T03:20:19.129Z,13.85
2022-10-17T03:22:47.839Z,13.84
2022-10-17T03:25:15.926Z,13.80
2022-10-17T03:27:44.329Z,13.74
2022-10-17T03:30:12.217Z,13.72
2022-10-17T03:32:40.328Z,13.69
2022-10-17T03:35:14.790Z,13.68
2022-10-17T03:37:46.163Z,13.66
2022-10-17T03:40:14.586Z,13.65
2022-10-17T03:42:42.480Z,13.64
2022-10-17T03:45:12.158Z,13.61
2022-10-17T03:47:40.417Z,13.61
2022-10-17T03:50:08.975Z,13.61
2022-10-17T03:52:37.945Z,13.62
2022-10-17T03:55:06.262Z,13.63
2022-10-17T03:57:37.071Z,13.63
2022-10-17T04:00:07.078Z,13.62
2022-10-17T04:02:46.420Z,13.58
2022-10-17T04:05:19.037Z,13.55
2022-10-17T04:07:48.041Z,13.52
2022-10-17T04:10:17.175Z,13.50
2022-10-17T04:12:46.368Z,13.50
2022-10-17T04:15:14.823Z,13.49
2022-10-17T04:17:42.969Z,13.51
2022-10-17T04:20:11.042Z,13.51
2022-10-17T04:22:38.858Z,13.50
2022-10-17T04:25:07.694Z,13.49
2022-10-17T04:27:40.367Z,13.48
2022-10-17T04:30:09.144Z,13.47
2022-10-17T04:32:40.100Z,13.49
2022-10-17T04:35:34.972Z,13.49
2022-10-17T04:38:04.357Z,13.46
2022-10-17T04:40:32.317Z,13.42
2022-10-17T04:43:00.311Z,13.40
2022-10-17T04:45:36.075Z,13.42
2022-10-17T04:48:04.750Z,13.44
2022-10-17T04:50:32.751Z,13.45
2022-10-17T04:53:31.960Z,13.47
2022-10-17T04:56:00.378Z,13.47
2022-10-17T04:58:30.539Z,13.47
2022-10-17T05:01:08.746Z,13.43
2022-10-17T05:03:40.723Z,13.40
2022-10-17T05:06:18.060Z,13.40
2022-10-17T05:08:49.090Z,13.40
2022-10-17T05:11:25.522Z,13.42
2022-10-17T05:14:00.384Z,13.42
2022-10-17T05:16:30.910Z,13.44
2022-10-17T05:19:00.843Z,13.44
2022-10-17T05:24:11.873Z,13.42
2022-10-17T05:26:39.959Z,13.42
2022-10-17T05:29:07.969Z,13.42
2022-10-17T05:31:39.183Z,13.41
2022-10-17T05:34:13.076Z,13.43
2022-10-17T05:36:42.625Z,13.45
2022-10-17T05:39:14.791Z,13.47
2022-10-17T05:41:43.361Z,13.44
2022-10-17T05:44:11.398Z,13.42
2022-10-17T05:46:42.785Z,13.43
2022-10-17T05:49:25.223Z,13.48
2022-10-17T05:52:00.316Z,13.54
2022-10-17T05:54:30.712Z,13.56
2022-10-17T05:56:58.858Z,13.62
2022-10-17T05:59:29.964Z,13.63
2022-10-17T06:02:05.348Z,13.66
2022-10-17T06:04:33.483Z,13.69
2022-10-17T06:07:02.908Z,13.73
2022-10-17T06:09:32.687Z,13.80
2022-10-17T06:12:00.639Z,13.88
2022-10-17T06:14:30.219Z,13.96
2022-10-17T06:17:01.812Z,14.03
2022-10-17T06:19:30.002Z,14.09
2022-10-17T06:21:58.629Z,14.14
2022-10-17T06:24:29.357Z,14.17
2022-10-17T06:26:58.457Z,14.22
2022-10-17T06:29:28.487Z,14.23
2022-10-17T06:31:56.436Z,14.29
2022-10-17T06:34:25.120Z,14.34
2022-10-17T06:36:53.192Z,14.33
2022-10-17T06:39:26.982Z,14.38
2022-10-17T06:42:16.487Z,14.44
2022-10-17T06:44:52.474Z,14.49
2022-10-17T06:47:49.229Z,14.58
2022-10-17T06:50:51.370Z,14.71
2022-10-17T06:53:29.238Z,14.83
2022-10-17T06:56:16.303Z,14.90
2022-10-17T06:58:56.116Z,14.96
2022-10-17T07:01:32.295Z,15.06
2022-10-17T07:04:02.448Z,15.10
2022-10-17T07:06:32.506Z,15.16
2022-10-17T07:09:09.793Z,15.27
2022-10-17T07:11:42.691Z,15.38
2022-10-17T07:14:10.644Z,15.44
2022-10-17T07:16:40.679Z,15.53
2022-10-17T07:19:16.383Z,15.59
2022-10-17T07:21:45.498Z,15.67
2022-10-17T07:24:13.884Z,15.76
2022-10-17T07:26:46.959Z,15.87
2022-10-17T07:29:15.862Z,16.02
2022-10-17T07:31:50.325Z,16.17
2022-10-17T07:34:21.799Z,16.31
2022-10-17T07:36:56.731Z,16.38
2022-10-17T07:39:42.675Z,16.43
2022-10-17T07:42:14.730Z,16.51
2022-10-17T07:44:42.896Z,16.58
2022-10-17T07:47:11.382Z,16.66
2022-10-17T07:49:44.630Z,16.79
2022-10-17T07:52:19.357Z,16.90
2022-10-17T07:54:47.898Z,17.02
2022-10-17T07:57:16.243Z,17.12
2022-10-17T07:59:47.970Z,17.27
2022-10-17T08:02:25.521Z,17.41
2022-10-17T08:04:54.305Z,17.60
2022-10-17T08:07:25.500Z,17.70
2022-10-17T08:09:58.904Z,17.83
2022-10-17T08:12:32.861Z,17.95
2022-10-17T08:15:01.621Z,18.09
2022-10-17T08:17:31.220Z,18.22
2022-10-17T08:19:59.197Z,18.37
2022-10-17T08:22:28.238Z,18.59
2022-10-17T08:24:57.939Z,18.79
2022-10-17T08:27:29.373Z,18.96
2022-10-17T08:29:57.719Z,19.11
2022-10-17T08:32:28.162Z,19.28
2022-10-17T08:34:57.918Z,19.47
2022-10-17T08:37:25.794Z,19.67
2022-10-17T08:39:53.602Z,19.88
2022-10-17T08:42:29.652Z,20.10
2022-10-17T08:45:24.789Z,20.31
2022-10-17T08:47:58.946Z,20.49
2022-10-17T08:51:09.763Z,20.61
2022-10-17T08:53:48.212Z,20.75
2022-10-17T08:56:47.560Z,20.93
2022-10-17T08:59:28.052Z,21.26
2022-10-17T09:02:00.477Z,21.51
2022-10-17T09:04:46.694Z,21.69
2022-10-17T09:07:29.407Z,21.92
2022-10-17T09:10:01.800Z,22.08
2022-10-17T09:13:21.301Z,22.28
2022-10-17T09:16:23.375Z,22.48
2022-10-17T09:19:07.428Z,22.66
2022-10-17T09:22:20.927Z,22.84
2022-10-17T09:25:19.817Z,23.14
2022-10-17T09:28:27.506Z,23.40
2022-10-17T09:31:44.955Z,23.59
2022-10-17T09:34:26.732Z,23.81
2022-10-17T09:37:08.592Z,24.02
2022-10-17T09:39:53.698Z,24.24
2022-10-17T09:42:28.836Z,24.32
2022-10-17T09:45:33.525Z,24.36
2022-10-17T09:48:25.709Z,24.54
2022-10-17T09:51:14.959Z,24.68
2022-10-17T09:54:04.656Z,24.90
2022-10-17T09:57:12.842Z,25.10
2022-10-17T10:00:02.733Z,25.33
2022-10-17T10:02:41.679Z,25.53
2022-10-17T10:05:23.127Z,25.65
2022-10-17T10:08:19.399Z,25.78
2022-10-17T10:11:03.491Z,25.90
2022-10-17T10:13:52.230Z,26.06
2022-10-17T10:16:36.658Z,26.28
2022-10-17T10:19:32.681Z,26.50
2022-10-17T10:22:25.558Z,26.67
2022-10-17T10:25:25.319Z,26.72
2022-10-17T10:27:59.358Z,26.81
2022-10-17T10:30:39.151Z,27.00
2022-10-17T10:33:30.223Z,27.17
2022-10-17T10:36:04.015Z,27.22
2022-10-17T10:38:45.567Z,27.32
2022-10-17T10:41:13.790Z,27.43
2022-10-17T10:43:48.702Z,27.54
2022-10-17T10:46:44.698Z,27.70
2022-10-17T10:49:33.775Z,27.80
2022-10-17T10:52:03.999Z,27.88
2022-10-17T10:57:21.551Z,27.92
2022-10-17T11:00:21.366Z,27.92
2022-10-17T11:03:20.093Z,27.98
2022-10-17T11:06:11.522Z,28.10
2022-10-17T11:08:50.387Z,28.21
2022-10-17T11:11:45.008Z,28.32
2022-10-17T11:14:42.892Z,28.36
2022-10-17T11:17:37.652Z,28.42
2022-10-17T11:20:09.322Z,28.31
2022-10-17T11:22:50.643Z,28.15
2022-10-17T11:25:33.135Z,28.09
2022-10-17T11:28:05.575Z,28.11
2022-10-17T11:30:52.087Z,28.18
2022-10-17T11:33:26.093Z,28.27
2022-10-17T11:36:01.619Z,28.24
2022-10-17T11:38:40.401Z,28.02
2022-10-17T11:41:18.131Z,27.87
2022-10-17T11:43:59.488Z,27.75
2022-10-17T11:46:28.835Z,27.63
2022-10-17T11:49:00.750Z,27.59
2022-10-17T11:54:22.619Z,27.69
2022-10-17T11:57:15.565Z,27.80
2022-10-17T12:00:06.900Z,27.90
2022-10-17T12:02:48.719Z,27.89
2022-10-17T12:05:36.268Z,27.87
2022-10-17T12:08:30.577Z,27.80
2022-10-17T12:11:19.052Z,27.83
2022-10-17T12:13:49.632Z,27.97
2022-10-17T12:16:17.682Z,28.01
2022-10-17T12:18:51.179Z,28.06
2022-10-17T12:21:19.015Z,28.19
2022-10-17T12:23:55.846Z,28.33
2022-10-17T12:26:40.310Z,28.47
2022-10-17T12:29:27.119Z,28.72
2022-10-17T12:31:55.270Z,29.07
2022-10-17T12:34:25.468Z,29.27
2022-10-17T12:36:54.647Z,29.42
2022-10-17T12:39:25.783Z,29.30
2022-10-17T12:41:54.172Z,29.15
2022-10-17T12:44:21.994Z,29.16
2022-10-17T12:47:11.399Z,29.25
2022-10-17T12:49:45.969Z,29.45
2022-10-17T12:52:21.993Z,29.66
2022-10-17T12:55:07.231Z,29.83
2022-10-17T12:57:48.232Z,29.92
2022-10-17T13:00:17.563Z,30.06
2022-10-17T13:02:48.990Z,30.23
2022-10-17T13:05:30.005Z,30.45
2022-10-17T13:08:01.351Z,30.75
2022-10-17T13:10:34.022Z,30.98
2022-10-17T13:13:22.017Z,31.24
2022-10-17T13:15:55.053Z,31.45
2022-10-17T13:18:33.583Z,31.61
2022-10-17T13:21:14.899Z,31.89
2022-10-17T13:23:45.653Z,32.16
2022-10-17T13:26:34.131Z,32.43
2022-10-17T13:29:21.006Z,32.55
2022-10-17T13:32:17.948Z,32.71
2022-10-17T13:34:46.089Z,32.99
2022-10-17T13:37:15.807Z,33.09
2022-10-17T13:39:57.988Z,33.30
2022-10-17T13:42:29.911Z,33.57
2022-10-17T13:44:58.999Z,33.87
2022-10-17T13:47:33.629Z,34.21
2022-10-17T13:50:06.852Z,34.51
2022-10-17T13:52:40.911Z,34.75
2022-10-17T13:55:23.623Z,34.87
2022-10-17T13:58:18.716Z,34.92
2022-10-17T14:00:50.843Z,34.95
2022-10-17T14:03:21.846Z,35.05
2022-10-17T14:06:12.005Z,35.23
2022-10-17T14:08:56.711Z,35.53
2022-10-17T14:13:11.214Z,36.01
2022-10-17T14:19:31.776Z,36.54
2022-10-17T14:22:38.594Z,36.70
2022-10-17T14:25:33.030Z,36.72
2022-10-17T14:28:19.756Z,36.76
2022-10-17T14:31:03.753Z,36.77
2022-10-17T14:33:50.679Z,36.87
2022-10-17T14:36:23.091Z,37.03
2022-10-17T14:43:12.310Z,36.92
2022-10-17T14:47:42.731Z,36.99
2022-10-17T14:50:11.665Z,37.14
2022-10-17T14:52:40.785Z,37.28
2022-10-17T14:55:23.163Z,37.46
2022-10-17T14:57:50.896Z,37.46
2022-10-17T15:00:20.380Z,37.40
2022-10-17T15:02:49.799Z,37.39
2022-10-17T15:05:17.852Z,37.37
2022-10-17T15:07:46.441Z,37.02
2022-10-17T15:10:32.040Z,36.22
2022-10-17T15:13:26.179Z,34.69
2022-10-17T15:15:52.667Z,32.99
2022-10-17T15:18:20.417Z,31.81
2022-10-17T15:20:52.668Z,30.80
2022-10-17T15:23:31.562Z,29.85
2022-10-17T15:25:59.588Z,29.02
2022-10-17T15:28:27.478Z,28.28
2022-10-17T15:30:55.356Z,27.64
2022-10-17T15:33:23.237Z,27.12
2022-10-17T15:35:53.016Z,26.57
2022-10-17T15:38:20.859Z,25.97
2022-10-17T15:40:50.949Z,25.49
2022-10-17T15:43:20.037Z,25.05
2022-10-17T15:45:48.448Z,24.70
2022-10-17T15:48:27.217Z,24.34
2022-10-17T15:50:55.066Z,24.02
2022-10-17T15:53:23.935Z,23.76
2022-10-17T15:55:52.206Z,23.53
2022-10-17T15:58:20.148Z,23.29
2022-10-17T16:00:48.460Z,23.05
2022-10-17T16:03:16.437Z,22.80
2022-10-17T16:05:44.331Z,22.58
2022-10-17T16:08:12.067Z,22.39
2022-10-17T16:10:40.641Z,22.21
2022-10-17T16:13:18.524Z,22.03
2022-10-17T16:15:46.725Z,21.84
2022-10-17T16:18:14.932Z,21.67
2022-10-17T16:20:42.799Z,21.50
2022-10-17T16:23:12.510Z,21.35
2022-10-17T16:25:40.890Z,21.20
2022-10-17T16:28:10.129Z,21.06
2022-10-17T16:30:46.468Z,20.93
2022-10-17T16:33:14.398Z,20.79
2022-10-17T16:35:42.794Z,20.67
2022-10-17T16:38:10.891Z,20.57
2022-10-17T16:40:39.642Z,20.45
2022-10-17T16:43:09.810Z,20.33
2022-10-17T16:45:37.626Z,20.24
2022-10-17T16:48:05.902Z,20.16
2022-10-17T16:50:35.650Z,20.06
2022-10-17T16:53:04.076Z,19.95
2022-10-17T16:55:31.923Z,19.84
2022-10-17T16:58:00.229Z,19.74
2022-10-17T17:00:28.449Z,19.65
2022-10-17T17:02:56.510Z,19.55
2022-10-17T17:05:24.269Z,19.43
2022-10-17T17:07:52.156Z,19.33
2022-10-17T17:10:19.885Z,19.26
2022-10-17T17:12:47.787Z,19.18
2022-10-17T17:15:15.751Z,19.11
2022-10-17T17:17:54.977Z,19.04
2022-10-17T17:20:23.706Z,18.99
2022-10-17T17:22:54.645Z,18.92
2022-10-17T17:25:22.938Z,18.85
2022-10-17T17:27:50.850Z,18.79
2022-10-17T17:30:18.724Z,18.72
2022-10-17T17:32:46.648Z,18.65
2022-10-17T17:35:14.399Z,18.60
2022-10-17T17:37:42.387Z,18.55
2022-10-17T17:40:11.284Z,18.49
2022-10-17T17:42:39.075Z,18.46
2022-10-17T17:45:07.614Z,18.40
2022-10-17T17:47:35.524Z,18.30
2022-10-17T17:50:03.753Z,18.19
2022-10-17T17:52:36.889Z,18.09
2022-10-17T17:55:07.786Z,18.01
2022-10-17T17:57:35.580Z,17.97
2022-10-17T18:00:05.018Z,17.96
2022-10-17T18:02:33.059Z,17.93
2022-10-17T18:05:01.055Z,17.90
2022-10-17T18:07:30.344Z,17.85
2022-10-17T18:09:58.713Z,17.81
2022-10-17T18:12:30.312Z,17.78
2022-10-17T18:14:58.497Z,17.79
2022-10-17T18:17:29.841Z,17.78
2022-10-17T18:20:00.568Z,17.78
2022-10-17T18:22:29.690Z,17.74
2022-10-17T18:24:57.641Z,17.69
2022-10-17T18:27:25.434Z,17.66
2022-10-17T18:29:53.618Z,17.64
2022-10-17T18:32:21.879Z,17.63
2022-10-17T18:34:50.427Z,17.62
2022-10-17T18:37:18.347Z,17.60
2022-10-17T18:39:49.234Z,17.60
2022-10-17T18:42:18.083Z,17.62
2022-10-17T18:44:47.435Z,17.60
2022-10-17T18:47:16.183Z,17.59
2022-10-17T18:49:44.013Z,17.59
2022-10-17T18:52:11.864Z,17.61
2022-10-17T18:54:39.595Z,17.66
2022-10-17T18:57:07.523Z,17.69
2022-10-17T18:59:35.378Z,17.71
2022-10-17T19:02:03.234Z,17.69
2022-10-17T19:04:31.093Z,17.64
2022-10-17T19:06:58.838Z,17.59
2022-10-17T19:09:26.666Z,17.54
2022-10-17T19:11:54.634Z,17.46
2022-10-17T19:14:22.446Z,17.35
2022-10-17T19:16:50.951Z,17.30
2022-10-17T19:19:23.864Z,17.29
2022-10-17T19:21:51.922Z,17.27
2022-10-17T19:24:26.490Z,17.24
2022-10-17T19:26:57.566Z,17.19
2022-10-17T19:29:28.442Z,17.16
2022-10-17T19:34:29.048Z,17.08
2022-10-17T19:36:56.819Z,17.07
2022-10-17T19:39:25.157Z,17.06
2022-10-17T19:41:53.168Z,17.05
2022-10-17T19:44:21.976Z,17.01
2022-10-17T19:46:49.812Z,17.00
2022-10-17T19:49:17.966Z,17.01
2022-10-17T19:51:45.797Z,17.02
2022-10-17T19:54:15.297Z,17.02
2022-10-17T19:56:43.510Z,17.01
2022-10-17T19:59:13.699Z,17.02
2022-10-17T20:01:41.818Z,17.02
2022-10-17T20:04:13.399Z,17.01
2022-10-17T20:06:41.520Z,16.99
2022-10-17T20:09:15.689Z,16.97
2022-10-17T20:11:45.377Z,16.95
2022-10-17T20:14:13.145Z,16.91
2022-10-17T20:16:41.333Z,16.85
2022-10-17T20:19:11.108Z,16.79
2022-10-17T20:21:39.768Z,16.71
2022-10-17T20:24:11.044Z,16.63
2022-10-17T20:26:39.873Z,16.56
2022-10-17T20:29:14.359Z,16.53
2022-10-17T20:31:44.342Z,16.51
2022-10-17T20:34:14.084Z,16.47
2022-10-17T20:36:41.938Z,16.45
2022-10-17T20:39:11.142Z,16.42
2022-10-17T20:41:39.229Z,16.38
2022-10-17T20:44:07.324Z,16.37
2022-10-17T20:46:37.647Z,16.37
2022-10-17T20:49:08.309Z,16.36
2022-10-17T20:51:36.119Z,16.36
2022-10-17T20:54:04.707Z,16.37
2022-10-17T20:56:34.370Z,16.40
2022-10-17T20:59:04.991Z,16.45
2022-10-17T21:01:35.279Z,16.50
2022-10-17T21:04:27.067Z,16.56
2022-10-17T21:06:52.252Z,16.61
2022-10-17T21:09:20.610Z,16.65
2022-10-17T21:11:51.227Z,16.67
2022-10-17T21:14:19.164Z,16.71
2022-10-17T21:16:47.344Z,16.72
2022-10-17T21:19:15.931Z,16.75
2022-10-17T21:21:45.754Z,16.77
2022-10-17T21:24:17.379Z,16.79
2022-10-17T21:26:46.811Z,16.80
2022-10-17T21:29:14.897Z,16.77
2022-10-17T21:31:44.038Z,16.74
2022-10-17T21:34:14.834Z,16.73
2022-10-17T21:36:43.840Z,16.71
2022-10-17T21:39:12.723Z,16.69
2022-10-17T21:41:40.987Z,16.67
2022-10-17T21:44:14.899Z,16.65
2022-10-17T21:46:43.289Z,16.63
2022-10-17T21:49:12.476Z,16.62
2022-10-17T21:51:40.764Z,16.61
2022-10-17T21:54:08.667Z,16.58
2022-10-17T21:56:36.525Z,16.58
2022-10-17T21:59:05.470Z,16.54
2022-10-17T22:01:39.731Z,16.51
2022-10-17T22:04:10.890Z,16.44
2022-10-17T22:06:41.011Z,16.39
2022-10-17T22:09:15.997Z,16.34
2022-10-17T22:11:48.664Z,16.30
2022-10-17T22:14:19.092Z,16.26
2022-10-17T22:16:47.974Z,16.25
2022-10-17T22:19:21.949Z,16.24
2022-10-17T22:21:50.104Z,16.24
2022-10-17T22:26:47.481Z,16.24
2022-10-17T22:29:15.808Z,16.26
2022-10-17T22:31:43.680Z,16.26
2022-10-17T22:34:13.448Z,16.23
2022-10-17T22:36:41.700Z,16.21
2022-10-17T22:39:10.053Z,16.16
2022-10-17T22:41:37.963Z,16.06
2022-10-17T22:44:05.886Z,15.98
2022-10-17T22:46:34.178Z,15.91
2022-10-17T22:49:02.145Z,15.82
2022-10-17T22:51:29.926Z,15.69
2022-10-17T22:53:57.758Z,15.56
2022-10-17T22:56:25.749Z,15.49
2022-10-17T22:58:53.601Z,15.44
2022-10-17T23:01:38.491Z,15.39
2022-10-17T23:04:06.804Z,15.32
2022-10-17T23:06:35.123Z,15.26
2022-10-17T23:09:04.450Z,15.22
2022-10-17T23:11:32.379Z,15.20
2022-10-17T23:14:00.198Z,15.17
2022-10-17T23:16:28.143Z,15.11
2022-10-17T23:18:57.488Z,15.05
2022-10-17T23:21:26.274Z,14.99
2022-10-17T23:23:54.088Z,14.91
2022-10-17T23:26:21.895Z,14.83
2022-10-17T23:28:54.629Z,14.77
2022-10-17T23:31:23.434Z,14.73
2022-10-17T23:33:51.400Z,14.69
2022-10-17T23:36:20.494Z,14.67
2022-10-17T23:38:48.800Z,14.69
2022-10-17T23:41:17.145Z,14.68
2022-10-17T23:43:45.244Z,14.66
2022-10-17T23:46:13.863Z,14.63
2022-10-17T23:48:41.866Z,14.59
2022-10-17T23:51:10.838Z,14.55
2022-10-17T23:53:39.928Z,14.51
2022-10-17T23:56:09.362Z,14.46
2022-10-17T23:58:38.369Z,14.42
